This is the latest recevied weather packets stored in our database for station/object W8CWV-13. If no packets are shown the sender has not sent any weather packets the latest 1 day(s).
| Time | Temp. | Humidity | Pressure | Rain* | Wind** | Luminosity | Snow |
|---|---|---|---|---|---|---|---|
| 1778034475 | 19.44° C | 100% | 1017.4 hPa | - | - | - | - |
| 1778033899 | 19.44° C | 100% | 1017.4 hPa | - | - | - | - |
| 1778033329 | 19.44° C | 100% | 1017.4 hPa | - | - | - | - |
| 1778032756 | 20° C | 100% | 1017.4 hPa | - | - | - | - |
| 1778032182 | 20° C | 100% | 1017.4 hPa | - | - | - | - |
| 1778031611 | 20.56° C | 100% | 1017.3 hPa | - | - | - | - |
| 1778031036 | 21.11° C | 100% | 1017.2 hPa | - | - | - | - |
| 1778030462 | 21.11° C | 100% | 1017.1 hPa | - | - | - | - |
| 1778029891 | 21.67° C | 100% | 1016.9 hPa | - | - | - | - |
| 1778029322 | 21.67° C | 100% | 1016.8 hPa | - | - | - | - |
| 1778028744 | 22.22° C | 100% | 1016.7 hPa | - | - | - | - |
| 1778028174 | 22.22° C | 100% | 1016.5 hPa | - | - | - | - |
| 1778027599 | 22.78° C | 100% | 1016.3 hPa | - | - | - | - |
| 1778026449 | 23.33° C | 100% | 1016.1 hPa | - | - | - | - |
| 1778024159 | 24.44° C | 100% | 1015.6 hPa | - | - | - | - |
| 1778023584 | 25° C | 100% | 1015.6 hPa | - | - | - | - |
| 1778019000 | 27.78° C | 100% | 1015.3 hPa | - | - | - | - |
| 1778018427 | 27.78° C | 100% | 1015.3 hPa | - | - | - | - |
| 1778016129 | 28.89° C | 100% | 1015.2 hPa | - | - | - | - |
| 1778015554 | 28.89° C | 100% | 1015.2 hPa | - | - | - | - |
| 1778014405 | 28.89° C | 100% | 1015.3 hPa | - | - | - | - |
| 1778013257 | 31.11° C | 100% | 1014.9 hPa | - | - | - | - |
| 1778010967 | 32.22° C | 100% | 1014.9 hPa | - | - | - | - |
| 1778007522 | 31.67° C | 100% | 1015.7 hPa | - | - | - | - |
| 1778002933 | 31.11° C | 100% | 1016.7 hPa | - | - | - | - |
* Rain since midnight (hover to see other rain measurements)
** Current wind speed in m/s (hover to see current wind gust speed)